createdAt,value
2018-02-18T00:01:27.720Z,78.54
2018-02-18T00:03:56.525Z,78.48
2018-02-18T00:06:25.712Z,77.42
2018-02-18T00:08:54.200Z,77.29
2018-02-18T00:11:23.050Z,78.16
2018-02-18T00:13:54.555Z,78.21
2018-02-18T00:16:22.850Z,79.07
2018-02-18T00:18:52.219Z,78.93
2018-02-18T00:21:20.876Z,77.53
2018-02-18T00:23:49.160Z,78.26
2018-02-18T00:26:17.540Z,78.33
2018-02-18T00:28:45.944Z,78.90
2018-02-18T00:31:14.644Z,79.88
2018-02-18T00:33:42.916Z,79.42
2018-02-18T00:36:12.088Z,79.37
2018-02-18T00:38:40.668Z,78.93
2018-02-18T00:41:09.040Z,79.54
2018-02-18T00:43:37.340Z,79.52
2018-02-18T00:46:05.633Z,79.74
2018-02-18T00:48:34.245Z,79.99
2018-02-18T00:51:03.296Z,81.29
2018-02-18T00:53:31.612Z,80.93
2018-02-18T00:56:00.653Z,81.06
2018-02-18T00:58:30.359Z,81.11
2018-02-18T01:00:58.676Z,81.84
2018-02-18T01:03:27.487Z,82.19
2018-02-18T01:05:56.038Z,82.73
2018-02-18T01:08:24.400Z,83.18
2018-02-18T01:10:53.021Z,82.27
2018-02-18T01:13:21.595Z,82.45
2018-02-18T01:15:49.896Z,82.45
2018-02-18T01:18:18.736Z,83.47
2018-02-18T01:20:47.127Z,83.33
2018-02-18T01:23:15.503Z,83.39
2018-02-18T01:25:43.793Z,83.22
2018-02-18T01:28:12.771Z,83.26
2018-02-18T01:30:41.863Z,83.37
2018-02-18T01:33:10.248Z,83.68
2018-02-18T01:38:11.969Z,83.60
2018-02-18T01:40:40.676Z,83.35
2018-02-18T01:43:10.564Z,83.19
2018-02-18T01:45:39.568Z,83.20
2018-02-18T01:48:08.645Z,83.50
2018-02-18T01:50:37.755Z,83.24
2018-02-18T01:53:06.024Z,83.03
2018-02-18T01:55:35.129Z,83.14
2018-02-18T01:58:04.741Z,83.50
2018-02-18T02:00:33.008Z,83.21
2018-02-18T02:03:01.978Z,83.92
2018-02-18T02:05:30.770Z,83.45
2018-02-18T02:07:59.791Z,83.45
2018-02-18T02:10:28.808Z,83.40
2018-02-18T02:12:59.589Z,84.11
2018-02-18T02:15:27.900Z,83.60
2018-02-18T02:17:56.349Z,83.93
2018-02-18T02:20:24.631Z,84.06
2018-02-18T02:22:52.908Z,83.76
2018-02-18T02:25:21.476Z,83.83
2018-02-18T02:27:50.000Z,84.82
2018-02-18T02:30:18.528Z,84.90
2018-02-18T02:32:46.836Z,84.00
2018-02-18T02:35:15.613Z,84.32
2018-02-18T02:37:43.914Z,83.67
2018-02-18T02:40:12.276Z,83.69
2018-02-18T02:42:40.571Z,83.67
2018-02-18T02:45:08.852Z,83.56
2018-02-18T02:47:38.071Z,83.72
2018-02-18T02:50:06.462Z,84.14
2018-02-18T02:52:37.001Z,84.10
2018-02-18T02:55:06.040Z,84.62
2018-02-18T02:57:34.312Z,84.86
2018-02-18T03:00:03.736Z,84.55
2018-02-18T03:02:32.744Z,84.11
2018-02-18T03:05:01.565Z,84.48
2018-02-18T03:07:31.743Z,84.47
2018-02-18T03:10:00.149Z,84.40
2018-02-18T03:12:28.904Z,84.00
2018-02-18T03:14:57.265Z,84.44
2018-02-18T03:17:26.736Z,83.96
2018-02-18T03:19:55.421Z,84.45
2018-02-18T03:22:24.477Z,84.47
2018-02-18T03:24:53.607Z,84.52
2018-02-18T03:27:23.177Z,83.85
2018-02-18T03:29:51.520Z,84.08
2018-02-18T03:32:21.761Z,84.76
2018-02-18T03:34:50.421Z,84.96
2018-02-18T03:37:19.851Z,84.61
2018-02-18T03:39:48.205Z,84.80
2018-02-18T03:42:18.023Z,85.02
2018-02-18T03:44:46.717Z,85.04
2018-02-18T03:47:15.842Z,84.72
2018-02-18T03:49:45.857Z,84.98
2018-02-18T03:52:14.133Z,84.91
2018-02-18T03:54:42.522Z,84.95
2018-02-18T03:57:10.852Z,84.72
2018-02-18T03:59:41.395Z,84.81
2018-02-18T04:02:10.476Z,85.20
2018-02-18T04:04:40.378Z,85.02
2018-02-18T04:07:09.095Z,84.89
2018-02-18T04:09:38.659Z,85.13
2018-02-18T04:12:06.951Z,85.12
2018-02-18T04:14:36.059Z,84.80
2018-02-18T04:17:05.540Z,85.16
2018-02-18T04:19:33.832Z,84.96
2018-02-18T04:22:02.957Z,84.71
2018-02-18T04:24:32.400Z,84.72
2018-02-18T04:27:02.135Z,85.05
2018-02-18T04:29:31.409Z,84.95
2018-02-18T04:31:59.868Z,85.02
2018-02-18T04:34:28.779Z,85.16
2018-02-18T04:36:58.033Z,85.53
2018-02-18T04:39:26.996Z,85.16
2018-02-18T04:41:55.300Z,85.28
2018-02-18T04:44:23.692Z,84.50
2018-02-18T04:46:52.831Z,85.30
2018-02-18T04:49:21.238Z,84.73
2018-02-18T04:51:51.429Z,84.87
2018-02-18T04:54:19.816Z,84.78
2018-02-18T04:56:48.843Z,85.00
2018-02-18T04:59:17.112Z,84.93
2018-02-18T05:01:45.429Z,85.21
2018-02-18T05:04:14.467Z,85.19
2018-02-18T05:06:42.748Z,84.61
2018-02-18T05:09:11.119Z,85.21
2018-02-18T05:11:40.263Z,84.71
2018-02-18T05:14:08.984Z,84.62
2018-02-18T05:16:37.596Z,84.91
2018-02-18T05:19:05.938Z,85.30
2018-02-18T05:21:34.663Z,84.94
2018-02-18T05:24:04.266Z,84.85
2018-02-18T05:26:34.005Z,84.85
2018-02-18T05:29:02.909Z,84.64
2018-02-18T05:31:31.201Z,84.80
2018-02-18T05:34:01.386Z,84.71
2018-02-18T05:36:29.661Z,84.37
2018-02-18T05:38:57.948Z,83.79
2018-02-18T05:41:26.512Z,83.76
2018-02-18T05:43:56.248Z,83.66
2018-02-18T05:46:24.525Z,84.07
2018-02-18T05:48:52.883Z,84.39
2018-02-18T05:51:22.604Z,83.23
2018-02-18T05:53:51.664Z,84.14
2018-02-18T05:56:19.974Z,84.08
2018-02-18T05:58:48.667Z,84.01
2018-02-18T06:01:18.863Z,84.22
2018-02-18T06:03:47.220Z,84.67
2018-02-18T06:06:17.225Z,84.50
2018-02-18T06:08:46.300Z,84.59
2018-02-18T06:11:14.605Z,84.72
2018-02-18T06:13:44.530Z,84.78
2018-02-18T06:16:13.636Z,84.48
2018-02-18T06:18:43.821Z,84.92
2018-02-18T06:21:12.123Z,85.07
2018-02-18T06:23:41.268Z,84.89
2018-02-18T06:26:09.537Z,85.79
2018-02-18T06:28:37.799Z,85.56
2018-02-18T06:31:07.717Z,85.44
2018-02-18T06:33:35.987Z,84.93
2018-02-18T06:36:05.225Z,85.44
2018-02-18T06:38:33.925Z,85.48
2018-02-18T06:41:02.769Z,85.33
2018-02-18T06:43:31.075Z,85.31
2018-02-18T06:45:59.377Z,85.56
2018-02-18T06:48:27.729Z,85.57
2018-02-18T06:50:57.010Z,85.48
2018-02-18T06:53:26.123Z,85.62
2018-02-18T06:55:54.538Z,85.65
2018-02-18T06:58:23.064Z,85.46
2018-02-18T07:00:51.341Z,85.77
2018-02-18T07:03:21.868Z,85.97
2018-02-18T07:05:50.164Z,85.77
2018-02-18T07:08:18.445Z,85.53
2018-02-18T07:10:47.343Z,85.76
2018-02-18T07:13:15.719Z,85.79
2018-02-18T07:15:44.803Z,85.61
2018-02-18T07:18:26.099Z,86.05
2018-02-18T07:20:56.576Z,85.69
2018-02-18T07:23:26.585Z,86.33
2018-02-18T07:25:55.159Z,86.47
2018-02-18T07:28:24.009Z,86.36
2018-02-18T07:30:52.276Z,86.65
2018-02-18T07:33:20.796Z,86.35
2018-02-18T07:35:49.917Z,86.12
2018-02-18T07:38:18.965Z,85.95
2018-02-18T07:40:47.284Z,85.82
2018-02-18T07:43:16.344Z,85.74
2018-02-18T07:45:45.339Z,85.01
2018-02-18T07:48:13.649Z,86.06
2018-02-18T07:50:41.914Z,85.74
2018-02-18T07:53:10.193Z,85.83
2018-02-18T07:55:38.553Z,86.07
2018-02-18T07:58:06.853Z,85.60
2018-02-18T08:00:35.129Z,85.63
2018-02-18T08:03:03.514Z,85.57
2018-02-18T08:05:31.835Z,85.46
2018-02-18T08:08:00.966Z,85.41
2018-02-18T08:10:29.335Z,85.38
2018-02-18T08:12:57.611Z,85.36
2018-02-18T08:15:25.916Z,84.42
2018-02-18T08:17:54.212Z,84.56
2018-02-18T08:20:22.489Z,84.21
2018-02-18T08:22:51.971Z,83.77
2018-02-18T08:25:20.258Z,81.85
2018-02-18T08:27:48.773Z,81.27
2018-02-18T08:30:17.345Z,79.74
2018-02-18T08:32:46.237Z,79.57
2018-02-18T08:35:14.776Z,78.82
2018-02-18T08:37:43.072Z,77.92
2018-02-18T08:40:12.685Z,76.89
2018-02-18T08:42:42.752Z,76.44
2018-02-18T08:45:11.800Z,77.16
2018-02-18T08:47:40.060Z,76.73
2018-02-18T08:50:08.463Z,75.06
2018-02-18T08:52:36.760Z,75.01
2018-02-18T08:55:05.378Z,73.84
2018-02-18T08:57:34.304Z,73.79
2018-02-18T09:00:03.097Z,73.91
2018-02-18T09:02:31.730Z,73.15
2018-02-18T09:05:01.544Z,70.58
2018-02-18T09:07:30.572Z,70.23
2018-02-18T09:10:00.199Z,70.46
2018-02-18T09:12:29.052Z,68.88
2018-02-18T09:14:57.356Z,68.80
2018-02-18T09:17:25.870Z,68.46
2018-02-18T09:19:55.182Z,68.59
2018-02-18T09:22:23.469Z,68.42
2018-02-18T09:24:51.743Z,68.33
2018-02-18T09:27:20.610Z,68.11
2018-02-18T09:29:50.047Z,66.82
2018-02-18T09:32:19.769Z,67.19
2018-02-18T09:34:50.078Z,65.22
2018-02-18T09:37:18.924Z,65.24
2018-02-18T09:39:47.192Z,64.04
2018-02-18T09:42:15.480Z,65.46
2018-02-18T09:44:44.433Z,65.42
2018-02-18T09:47:13.468Z,63.96
2018-02-18T09:49:42.612Z,64.59
2018-02-18T09:52:11.765Z,62.85
2018-02-18T09:54:40.373Z,64.25
2018-02-18T09:57:08.753Z,63.21
2018-02-18T09:59:37.630Z,61.62
2018-02-18T10:02:05.901Z,61.79
2018-02-18T10:04:34.461Z,60.40
2018-02-18T10:07:04.082Z,59.65
2018-02-18T10:09:32.989Z,60.97
2018-02-18T10:12:01.317Z,60.50
2018-02-18T10:14:30.854Z,60.76
2018-02-18T10:16:59.183Z,61.55
2018-02-18T10:19:27.748Z,62.44
2018-02-18T10:21:56.029Z,61.31
2018-02-18T10:24:24.609Z,61.95
2018-02-18T10:26:52.994Z,61.51
2018-02-18T10:29:21.276Z,61.64
2018-02-18T10:31:49.748Z,61.04
2018-02-18T10:34:19.048Z,60.82
2018-02-18T10:36:49.031Z,60.19
2018-02-18T10:39:19.076Z,59.22
2018-02-18T10:41:47.882Z,59.30
2018-02-18T10:44:16.658Z,60.20
2018-02-18T10:46:46.884Z,58.36
2018-02-18T10:49:15.270Z,58.63
2018-02-18T10:51:44.157Z,58.92
2018-02-18T10:54:12.777Z,59.85
2018-02-18T10:56:41.684Z,59.06
2018-02-18T10:59:12.417Z,59.17
2018-02-18T11:01:43.167Z,59.27
2018-02-18T11:04:12.232Z,58.83
2018-02-18T11:06:40.495Z,59.15
2018-02-18T11:09:09.457Z,59.35
2018-02-18T11:11:37.868Z,57.89
2018-02-18T11:14:06.127Z,58.97
2018-02-18T11:16:35.482Z,59.76
2018-02-18T11:19:04.549Z,59.27
2018-02-18T11:21:32.813Z,59.28
2018-02-18T11:24:01.103Z,60.04
2018-02-18T11:26:30.179Z,59.26
2018-02-18T11:29:01.301Z,59.40
2018-02-18T11:31:30.972Z,59.34
2018-02-18T11:34:00.033Z,59.14
2018-02-18T11:36:28.905Z,59.37
2018-02-18T11:38:57.193Z,58.85
2018-02-18T11:41:25.477Z,59.79
2018-02-18T11:43:55.172Z,58.43
2018-02-18T11:46:24.784Z,58.35
2018-02-18T11:48:53.058Z,57.85
2018-02-18T11:51:21.335Z,58.11
2018-02-18T11:53:52.273Z,58.31
2018-02-18T11:56:21.068Z,57.65
2018-02-18T11:58:50.112Z,58.64
2018-02-18T12:01:19.414Z,58.27
2018-02-18T12:03:47.694Z,57.89
2018-02-18T12:06:16.842Z,57.74
2018-02-18T12:08:45.439Z,57.82
2018-02-18T12:11:13.968Z,57.19
2018-02-18T12:13:42.823Z,56.59
2018-02-18T12:16:11.449Z,55.82
2018-02-18T12:18:41.507Z,54.90
2018-02-18T12:21:09.987Z,55.01
2018-02-18T12:23:38.368Z,54.88
2018-02-18T12:26:07.395Z,54.29
2018-02-18T12:28:36.155Z,55.35
2018-02-18T12:31:05.625Z,56.02
2018-02-18T12:33:35.240Z,55.89
2018-02-18T12:36:04.264Z,54.25
2018-02-18T12:38:33.150Z,55.41
2018-02-18T12:41:02.996Z,53.98
2018-02-18T12:43:31.260Z,55.04
2018-02-18T12:45:59.555Z,54.13
2018-02-18T12:48:28.065Z,55.01
2018-02-18T12:50:56.740Z,55.71
2018-02-18T12:53:25.956Z,55.88
2018-02-18T12:55:56.231Z,54.15
2018-02-18T12:58:24.527Z,53.82
2018-02-18T13:00:52.984Z,52.97
2018-02-18T13:03:21.904Z,54.21
2018-02-18T13:05:50.400Z,52.79
2018-02-18T13:08:19.220Z,52.80
2018-02-18T13:10:48.666Z,53.95
2018-02-18T13:13:16.966Z,53.70
2018-02-18T13:15:45.235Z,53.83
2018-02-18T13:18:14.364Z,53.68
2018-02-18T13:20:42.637Z,52.32
2018-02-18T13:23:11.984Z,52.96
2018-02-18T13:25:40.261Z,53.47
2018-02-18T13:28:09.243Z,52.59
2018-02-18T13:30:39.609Z,52.79
2018-02-18T13:33:08.397Z,53.25
2018-02-18T13:35:37.202Z,53.17
2018-02-18T13:38:06.160Z,54.03
2018-02-18T13:40:34.429Z,52.26
2018-02-18T13:43:02.879Z,51.80
2018-02-18T13:45:31.465Z,53.29
2018-02-18T13:48:03.301Z,52.92
2018-02-18T13:50:31.577Z,51.66
2018-02-18T13:52:59.939Z,54.72
2018-02-18T13:55:28.234Z,52.74
2018-02-18T13:57:56.813Z,51.57
2018-02-18T14:00:25.108Z,51.37
2018-02-18T14:02:53.947Z,51.85
2018-02-18T14:05:23.179Z,53.05
2018-02-18T14:07:52.562Z,53.14
2018-02-18T14:10:20.840Z,51.37
2018-02-18T14:12:50.147Z,52.02
2018-02-18T14:15:18.442Z,51.70
2018-02-18T14:17:46.713Z,53.90
2018-02-18T14:20:15.729Z,54.65
2018-02-18T14:22:45.216Z,51.56
2018-02-18T14:25:13.873Z,51.06
2018-02-18T14:27:42.153Z,50.13
2018-02-18T14:30:10.469Z,50.25
2018-02-18T14:32:40.220Z,50.57
2018-02-18T14:35:08.509Z,51.47
2018-02-18T14:37:36.842Z,49.16
2018-02-18T14:40:05.149Z,50.13
2018-02-18T14:46:07.514Z,51.62
2018-02-18T14:48:53.667Z,51.74
2018-02-18T14:51:40.173Z,51.95
2018-02-18T14:54:26.233Z,52.43
2018-02-18T14:57:09.523Z,51.47
2018-02-18T14:59:38.509Z,53.60
2018-02-18T15:02:07.592Z,52.10
2018-02-18T15:04:35.857Z,54.60
2018-02-18T15:07:04.141Z,52.04
2018-02-18T15:09:32.413Z,50.98
2018-02-18T15:12:01.662Z,52.17
2018-02-18T15:14:31.252Z,53.58
2018-02-18T15:17:00.513Z,52.62
2018-02-18T15:19:29.441Z,52.36
2018-02-18T15:21:57.731Z,53.42
2018-02-18T15:24:26.140Z,52.22
2018-02-18T15:26:54.880Z,53.00
2018-02-18T15:29:23.259Z,52.62
2018-02-18T15:31:51.553Z,53.22
2018-02-18T15:34:19.816Z,54.61
2018-02-18T15:36:48.120Z,55.05
2018-02-18T15:39:16.480Z,55.17
2018-02-18T15:41:46.033Z,54.79
2018-02-18T15:44:15.092Z,54.17
2018-02-18T15:46:43.379Z,54.36
2018-02-18T15:49:11.688Z,53.85
2018-02-18T15:51:40.728Z,54.05
2018-02-18T15:54:10.268Z,53.81
2018-02-18T15:56:38.552Z,53.40
2018-02-18T15:59:07.845Z,53.84
2018-02-18T16:01:36.111Z,55.69
2018-02-18T16:04:04.471Z,53.62
2018-02-18T16:06:32.872Z,53.36
2018-02-18T16:09:01.724Z,54.38
2018-02-18T16:11:30.877Z,54.31
2018-02-18T16:13:59.372Z,54.10
2018-02-18T16:16:28.030Z,55.51
2018-02-18T16:18:56.302Z,57.31
2018-02-18T16:21:24.602Z,55.37
2018-02-18T16:23:53.790Z,56.10
2018-02-18T16:26:22.462Z,56.65
2018-02-18T16:28:50.766Z,58.73
2018-02-18T16:31:19.040Z,59.12
2018-02-18T16:33:47.305Z,60.43
2018-02-18T16:36:15.609Z,62.87
2018-02-18T16:38:44.691Z,62.89
2018-02-18T16:41:13.045Z,62.52
2018-02-18T16:43:41.337Z,63.09
2018-02-18T16:46:09.622Z,63.19
2018-02-18T16:48:38.391Z,64.01
2018-02-18T16:51:08.224Z,64.89
2018-02-18T16:53:36.525Z,66.10
2018-02-18T16:56:04.820Z,66.16
2018-02-18T16:58:33.868Z,64.82
2018-02-18T17:01:02.440Z,66.11
2018-02-18T17:03:30.815Z,65.85
2018-02-18T17:05:59.901Z,67.72
2018-02-18T17:08:29.650Z,66.20
2018-02-18T17:10:58.545Z,66.93
2018-02-18T17:13:27.208Z,67.83
2018-02-18T17:15:55.477Z,68.28
2018-02-18T17:18:23.768Z,68.76
2018-02-18T17:20:52.052Z,68.86
2018-02-18T17:23:20.366Z,69.78
2018-02-18T17:25:49.620Z,69.66
2018-02-18T17:28:18.026Z,69.53
2018-02-18T17:30:46.301Z,69.80
2018-02-18T17:33:14.671Z,69.56
2018-02-18T17:35:42.900Z,69.91
2018-02-18T17:38:11.187Z,70.73
2018-02-18T17:40:40.109Z,71.04
2018-02-18T17:43:08.389Z,71.29
2018-02-18T17:45:36.652Z,72.11
2018-02-18T17:48:06.392Z,72.12
2018-02-18T17:50:35.059Z,72.66
2018-02-18T17:53:03.332Z,73.53
2018-02-18T17:55:32.239Z,72.96
2018-02-18T17:58:00.530Z,72.32
2018-02-18T18:00:28.808Z,72.03
2018-02-18T18:02:57.341Z,72.38
2018-02-18T18:05:25.585Z,72.97
2018-02-18T18:07:54.972Z,72.74
2018-02-18T18:10:24.969Z,73.50
2018-02-18T18:12:54.421Z,72.91
2018-02-18T18:15:24.420Z,73.76
2018-02-18T18:17:52.716Z,74.63
2018-02-18T18:20:21.762Z,73.99
2018-02-18T18:22:51.908Z,73.68
2018-02-18T18:25:21.079Z,74.02
2018-02-18T18:27:50.104Z,73.70
2018-02-18T18:30:18.417Z,74.46
2018-02-18T18:32:47.843Z,74.56
2018-02-18T18:35:17.989Z,74.65
2018-02-18T18:37:47.044Z,75.05
2018-02-18T18:40:15.330Z,75.05
2018-02-18T18:42:43.740Z,75.09
2018-02-18T18:45:12.030Z,74.52
2018-02-18T18:47:41.333Z,75.26
2018-02-18T18:50:09.628Z,76.21
2018-02-18T18:52:37.948Z,76.40
2018-02-18T18:55:06.541Z,77.44
2018-02-18T18:57:34.836Z,76.26
2018-02-18T19:00:03.139Z,75.98
2018-02-18T19:02:31.465Z,76.67
2018-02-18T19:04:59.741Z,75.64
2018-02-18T19:07:28.069Z,76.76
2018-02-18T19:09:56.376Z,77.01
2018-02-18T19:12:25.448Z,77.49
2018-02-18T19:14:53.820Z,78.29
2018-02-18T19:17:23.012Z,78.44
2018-02-18T19:19:51.588Z,78.06
2018-02-18T19:22:19.874Z,78.38
2018-02-18T19:24:48.244Z,78.87
2018-02-18T19:27:16.769Z,78.49
2018-02-18T19:29:45.226Z,78.36
2018-02-18T19:32:14.109Z,78.03
2018-02-18T19:34:42.477Z,78.05
2018-02-18T19:37:10.845Z,77.87
2018-02-18T19:39:39.848Z,77.51
2018-02-18T19:42:09.363Z,77.84
2018-02-18T19:44:37.637Z,77.54
2018-02-18T19:47:06.140Z,77.42
2018-02-18T19:49:34.496Z,77.15
2018-02-18T19:52:02.780Z,77.11
2018-02-18T19:54:31.667Z,77.12
2018-02-18T19:56:59.948Z,77.23
2018-02-18T19:59:28.990Z,76.63
2018-02-18T20:01:58.161Z,76.71
2018-02-18T20:04:26.468Z,76.69
2018-02-18T20:06:55.259Z,77.37
2018-02-18T20:09:24.327Z,77.20
2018-02-18T20:11:53.033Z,77.11
2018-02-18T20:14:21.393Z,76.73
2018-02-18T20:16:49.701Z,77.92
2018-02-18T20:19:18.986Z,77.87
2018-02-18T20:21:47.270Z,77.39
2018-02-18T20:24:16.648Z,77.47
2018-02-18T20:26:45.121Z,76.87
2018-02-18T20:29:13.422Z,76.96
2018-02-18T20:31:41.808Z,77.35
2018-02-18T20:34:10.099Z,77.22
2018-02-18T20:36:40.882Z,77.12
2018-02-18T20:39:09.172Z,77.91
2018-02-18T20:41:37.449Z,77.85
2018-02-18T20:44:05.777Z,77.86
2018-02-18T20:46:35.153Z,77.88
2018-02-18T20:49:04.236Z,78.57
2018-02-18T20:51:32.544Z,77.47
2018-02-18T20:54:01.580Z,78.20
2018-02-18T20:56:29.860Z,78.52
2018-02-18T20:58:58.269Z,78.07
2018-02-18T21:01:26.550Z,77.99
2018-02-18T21:03:54.804Z,78.38
2018-02-18T21:06:23.239Z,78.03
2018-02-18T21:08:51.732Z,78.42
2018-02-18T21:11:20.828Z,78.81
2018-02-18T21:13:49.877Z,78.10
2018-02-18T21:16:18.160Z,78.81
2018-02-18T21:18:46.473Z,78.54
2018-02-18T21:21:16.028Z,78.64
2018-02-18T21:23:46.089Z,78.67
2018-02-18T21:26:14.382Z,78.57
2018-02-18T21:28:44.362Z,78.47
2018-02-18T21:31:12.846Z,78.89
2018-02-18T21:33:41.903Z,78.96
2018-02-18T21:36:10.913Z,78.23
2018-02-18T21:38:39.396Z,78.71
2018-02-18T21:41:08.312Z,78.81
2018-02-18T21:43:36.633Z,78.86
2018-02-18T21:46:04.942Z,78.59
2018-02-18T21:48:33.221Z,78.20
2018-02-18T21:51:02.972Z,78.55
2018-02-18T21:53:31.358Z,78.88
2018-02-18T21:55:59.675Z,79.12
2018-02-18T21:58:27.956Z,78.99
2018-02-18T22:00:56.248Z,78.58
2018-02-18T22:03:25.689Z,78.53
2018-02-18T22:05:54.914Z,78.38
2018-02-18T22:08:23.998Z,78.12
2018-02-18T22:10:52.289Z,78.54
2018-02-18T22:13:21.442Z,78.44
2018-02-18T22:15:49.733Z,78.73
2018-02-18T22:18:18.313Z,78.69
2018-02-18T22:20:46.647Z,78.05
2018-02-18T22:23:14.921Z,78.13
2018-02-18T22:25:43.209Z,77.89
2018-02-18T22:28:11.605Z,78.02
2018-02-18T22:30:40.195Z,78.82
2018-02-18T22:33:08.896Z,78.90
2018-02-18T22:35:37.452Z,78.96
2018-02-18T22:38:05.749Z,78.37
2018-02-18T22:40:34.049Z,78.25
2018-02-18T22:43:02.385Z,78.26
2018-02-18T22:45:30.718Z,78.06
2018-02-18T22:47:59.011Z,78.03
2018-02-18T22:50:27.302Z,78.39
2018-02-18T22:52:55.748Z,77.31
2018-02-18T22:55:24.607Z,77.81
2018-02-18T22:57:52.868Z,77.29
2018-02-18T23:00:22.329Z,77.46
2018-02-18T23:02:50.785Z,78.07
2018-02-18T23:05:24.757Z,77.52
2018-02-18T23:07:53.039Z,77.78
2018-02-18T23:10:22.140Z,77.58
2018-02-18T23:12:51.358Z,76.95
2018-02-18T23:15:19.664Z,77.17
2018-02-18T23:17:48.179Z,77.35
2018-02-18T23:20:17.221Z,77.06
2018-02-18T23:22:45.600Z,76.01
2018-02-18T23:25:13.986Z,76.13
2018-02-18T23:27:42.353Z,76.62
2018-02-18T23:30:10.933Z,76.42
2018-02-18T23:32:39.320Z,76.46
2018-02-18T23:35:07.621Z,76.63
2018-02-18T23:37:36.725Z,76.50
2018-02-18T23:40:04.996Z,77.10
2018-02-18T23:42:33.280Z,77.88
2018-02-18T23:45:01.824Z,77.54
2018-02-18T23:47:30.960Z,77.06
2018-02-18T23:49:59.340Z,77.71
2018-02-18T23:52:28.201Z,77.98
2018-02-18T23:54:57.136Z,78.15
2018-02-18T23:57:26.072Z,78.95
2018-02-18T23:59:54.357Z,78.35
